| time (UTC) | temp F | wind direction | speed MPH | gust MPH | rain 1hr in | rain 24hr in | rain mn in | humidity % | barometer mb |
| 20260506205742 | 54 | 0.0 | 0.0 | 0.14 | 0.39 | 0.39 | 96 | ||
| 20260506204808 | 54 | 0.0 | 0.0 | 0.17 | 0.37 | 0.37 | 96 | ||
| 20260506203743 | 54 | 0.0 | 0.0 | 0.15 | 0.34 | 0.34 | 95 | ||
| 20260506202806 | 54 | 0.0 | 0.0 | 0.15 | 0.34 | 0.34 | 95 | ||
| 20260506201743 | 54 | 0.0 | 1.0 | 0.14 | 0.32 | 0.32 | 95 | ||
| 20260506200808 | 54 | 0.0 | 0.0 | 0.12 | 0.30 | 0.28 | 94 | ||
| 20260506195743 | 55 | 0.0 | 0.0 | 0.08 | 0.28 | 0.25 | 91 | ||
| 20260506194806 | 55 | 0.0 | 0.0 | 0.04 | 0.24 | 0.20 | 91 | ||
| 20260506193742 | 55 | 0.0 | 0.0 | 0.04 | 0.22 | 0.19 | 91 | ||
| 20260506192810 | 55 | 0.0 | 0.0 | 0.04 | 0.22 | 0.19 | 90 | ||
| 20260506191743 | 54 | 0.0 | 0.0 | 0.02 | 0.21 | 0.18 | 93 | ||
| 20260506190807 | 54 | 0.0 | 0.0 | 0.01 | 0.21 | 0.17 | 91 | ||
| 20260506185750 | 55 | 0.0 | 0.0 | 0.01 | 0.21 | 0.17 | 90 | ||
| 20260506184806 | 55 | 0.0 | 0.0 | 0.02 | 0.21 | 0.17 | 90 | ||
| 20260506183742 | 55 | 0.0 | 0.0 | 0.01 | 0.20 | 0.15 | 90 | ||
| 20260506182854 | 55 | 0.0 | 0.0 | 0.01 | 0.20 | 0.15 | 90 | ||
| 20260506181743 | 55 | 0.0 | 0.0 | 0.01 | 0.20 | 0.15 | 90 | ||
| 20260506180810 | 55 | 0.0 | 0.0 | 0.02 | 0.20 | 0.15 | 90 | ||
| 20260506175831 | 55 | 0.0 | 0.0 | 0.02 | 0.20 | 0.15 | 89 | ||
| 20260506174808 | 55 | 0.0 | 0.0 | 0.01 | 0.19 | 0.14 | 89 | ||
| 20260506173745 | 55 | 0.0 | 0.0 | 0.02 | 0.19 | 0.14 | 89 | ||
| 20260506172807 | 55 | 0.0 | 0.0 | 0.02 | 0.19 | 0.14 | 89 | ||
| 20260506171743 | 56 | 0.0 | 0.0 | 0.04 | 0.19 | 0.14 | 89 | ||
| 20260506170807 | 56 | 0.0 | 0.0 | 0.04 | 0.18 | 0.13 | 88 | ||
| 20260506165744 | 56 | 0.0 | 0.0 | 0.05 | 0.18 | 0.13 | 88 | ||
| 20260506164809 | 56 | 0.0 | 0.0 | 0.05 | 0.18 | 0.13 | 87 | ||
| 20260506163742 | 56 | 0.0 | 0.0 | 0.05 | 0.17 | 0.12 | 87 | ||
| 20260506162806 | 56 | 0.0 | 0.0 | 0.05 | 0.17 | 0.12 | 87 | ||
| 20260506161745 | 56 | 0.0 | 0.0 | 0.04 | 0.15 | 0.11 | 86 | ||
| 20260506160807 | 56 | 0.0 | 0.0 | 0.04 | 0.14 | 0.09 | 86 | ||
| 20260506155743 | 56 | 0.0 | 0.0 | 0.04 | 0.13 | 0.08 | 85 | ||
| 20260506154807 | 56 | 0.0 | 0.0 | 0.06 | 0.13 | 0.08 | 86 | ||
| 20260506153742 | 56 | 0.0 | 0.0 | 0.06 | 0.13 | 0.07 | 85 | ||
| 20260506152807 | 56 | 0.0 | 0.0 | 0.06 | 0.13 | 0.07 | 84 | ||
| 20260506151743 | 56 | 0.0 | 0.0 | 0.06 | 0.13 | 0.07 | 83 | ||
| 20260506150807 | 56 | 0.0 | 1.0 | 0.05 | 0.12 | 0.06 | 82 | ||
| 20260506145742 | 57 | 0.0 | 1.0 | 0.04 | 0.12 | 0.05 | 81 | ||
| 20260506144807 | 59 | 0.0 | 0.0 | 0.01 | 0.09 | 0.02 | 78 | ||
| 20260506143743 | 60 | 0.0 | 0.0 | 0.00 | 0.08 | 0.01 | 73 | ||
| 20260506142231 | 62 | 0.0 | 0.0 | 0.00 | 0.09 | 0.01 | 66 | ||
| 20260506141255 | 63 | 0.0 | 1.0 | 0.00 | 0.09 | 0.01 | 63 | ||
| 20260506140232 | 63 | 0.0 | 0.0 | 0.00 | 0.09 | 0.01 | 61 | ||
| 20260506135259 | 64 | 0.0 | 1.0 | 0.00 | 0.09 | 0.01 | 58 | ||
| 20260506134231 | 65 | 0.0 | 0.0 | 0.00 | 0.09 | 0.01 | 58 | ||
| 20260506133255 | 65 | 0.0 | 0.0 | 0.00 | 0.09 | 0.01 | 55 | ||
| 20260506132231 | 66 | 0.0 | 0.0 | 0.00 | 0.09 | 0.01 | 55 | ||
| 20260506131255 | 66 | 0.0 | 0.0 | 0.00 | 0.09 | 0.01 | 55 | ||
| 20260506130230 | 67 | 0.0 | 1.0 | 0.00 | 0.09 | 0.01 | 53 | ||
| 20260506125255 | 67 | 0.0 | 0.0 | 0.00 | 0.09 | 0.01 | 52 | ||
| 20260506124230 | 66 | 0.0 | 1.0 | 0.00 | 0.09 | 0.01 | 54 | ||
| 20260506123254 | 66 | 0.0 | 0.0 | 0.00 | 0.09 | 0.01 | 56 | ||
| 20260506122231 | 67 | 0.0 | 0.0 | 0.00 | 0.09 | 0.01 | 53 | ||
| 20260506121256 | 69 | 0.0 | 0.0 | 0.00 | 0.09 | 0.01 | 52 | ||
| 20260506120231 | 70 | 0.0 | 0.0 | 0.00 | 0.09 | 0.01 | 51 | ||
| 20260506115256 | 68 | 0.0 | 0.0 | 0.00 | 0.09 | 0.01 | 50 | ||
| 20260506114231 | 69 | 0.0 | 1.0 | 0.00 | 0.09 | 0.01 | 54 | ||
| 20260506113255 | 67 | 0.0 | 1.0 | 0.00 | 0.09 | 0.01 | 55 | ||
| 20260506112232 | 66 | 0.0 | 0.0 | 0.00 | 0.09 | 0.01 | 56 | ||
| 20260506111256 | 66 | 0.0 | 0.0 | 0.00 | 0.09 | 0.01 | 56 | ||
| 20260506110231 | 67 | 0.0 | 0.0 | 0.00 | 0.09 | 0.01 | 56 | ||
| 20260506105254 | 66 | 0.0 | 1.0 | 0.00 | 0.09 | 0.01 | 57 | ||
| 20260506104232 | 66 | 0.0 | 0.0 | 0.00 | 0.09 | 0.01 | 59 | ||
| 20260506103255 | 65 | 0.0 | 0.0 | 0.00 | 0.09 | 0.01 | 58 | ||
| 20260506102233 | 65 | 0.0 | 0.0 | 0.00 | 0.09 | 0.01 | 55 | ||
| 20260506101258 | 66 | 0.0 | 1.0 | 0.00 | 0.09 | 0.01 | 59 | ||
| 20260506100231 | 66 | 0.0 | 0.0 | 0.00 | 0.09 | 0.01 | 60 | ||
| 20260506095256 | 65 | 0.0 | 0.0 | 0.00 | 0.09 | 0.01 | 58 | ||
| 20260506094233 | 65 | 0.0 | 0.0 | 0.00 | 0.09 | 0.01 | 57 | ||
| 20260506093254 | 66 | 0.0 | 0.0 | 0.00 | 0.09 | 0.01 | 55 | ||
| 20260506092231 | 66 | 0.0 | 0.0 | 0.00 | 0.09 | 0.01 | 59 | ||
| 20260506091256 | 64 | 0.0 | 0.0 | 0.00 | 0.09 | 0.01 | 60 | ||
| 20260506090232 | 65 | 0.0 | 0.0 | 0.00 | 0.09 | 0.01 | 60 | ||
| 20260506085255 | 64 | 0.0 | 0.0 | 0.00 | 0.09 | 0.01 | 60 | ||
| 20260506084231 | 66 | 0.0 | 0.0 | 0.00 | 0.09 | 0.01 | 61 | ||
| 20260506083255 | 64 | 0.0 | 0.0 | 0.00 | 0.09 | 0.01 | 62 | ||
| 20260506082231 | 63 | 0.0 | 0.0 | 0.00 | 0.09 | 0.01 | 67 | ||
| 20260506081255 | 64 | 0.0 | 0.0 | 0.00 | 0.09 | 0.01 | 61 | ||
| 20260506080231 | 66 | 0.0 | 0.0 | 0.00 | 0.09 | 0.01 | 60 | ||
| 20260506073343 | 67 | 0.0 | 0.0 | 0.00 | 0.09 | 0.01 | 58 | ||
| 20260506072232 | 67 | 0.0 | 0.0 | 0.00 | 0.09 | 0.01 | 63 | ||
| 20260506071256 | 65 | 0.0 | 0.0 | 0.00 | 0.09 | 0.01 | 68 | ||
| 20260506070231 | 63 | 0.0 | 0.0 | 0.00 | 0.09 | 0.01 | 75 | ||
| 20260506062230 | 58 | 0.0 | 0.0 | 0.00 | 0.09 | 0.01 | 83 | ||
| 20260506061255 | 57 | 0.0 | 0.0 | 0.00 | 0.09 | 0.01 | 86 | ||
| 20260506060232 | 56 | 0.0 | 0.0 | 0.00 | 0.09 | 0.01 | 89 | ||
| 20260506051255 | 52 | 0.0 | 0.0 | 0.01 | 0.09 | 0.01 | 97 | ||
| 20260506050233 | 52 | 0.0 | 0.0 | 0.01 | 0.09 | 0.01 | 97 | ||
| 20260506044231 | 52 | 0.0 | 0.0 | 0.01 | 0.09 | 0.01 | 98 | ||
| 20260506043256 | 52 | 0.0 | 0.0 | 0.01 | 0.09 | 0.01 | 98 | ||
| 20260506042231 | 51 | 0.0 | 2.0 | 0.00 | 0.08 | 0.00 | 97 | ||
| 20260506041255 | 51 | 0.0 | 0.0 | 0.00 | 0.08 | 0.00 | 97 | ||
| 20260506040320 | 50 | 0.0 | 0.0 | 0.00 | 0.08 | 0.00 | 97 | ||
| 20260506035257 | 50 | 0.0 | 0.0 | 0.00 | 0.08 | 0.00 | 97 | ||
| 20260506034232 | 51 | 0.0 | 0.0 | 0.00 | 0.08 | 0.00 | 97 | ||
| 20260506033255 | 51 | 0.0 | 0.0 | 0.00 | 0.08 | 0.00 | 98 | ||
| 20260506032232 | 51 | 0.0 | 0.0 | 0.00 | 0.08 | 0.00 | 98 | ||
| 20260506031255 | 52 | 0.0 | 0.0 | 0.00 | 0.08 | 0.00 | 98 | ||
| 20260506030235 | 52 | 0.0 | 0.0 | 0.00 | 0.08 | 0.00 | 98 | ||
| 20260506025255 | 52 | 0.0 | 0.0 | 0.00 | 0.08 | 0.00 | 98 | ||
| 20260506024233 | 52 | 0.0 | 0.0 | 0.00 | 0.08 | 0.00 | 98 | ||
| 20260506023255 | 51 | 0.0 | 0.0 | 0.00 | 0.08 | 0.00 | 98 | ||
| 20260506022231 | 52 | 0.0 | 0.0 | 0.00 | 0.08 | 0.00 | 97 | ||
| 20260506021255 | 52 | 0.0 | 0.0 | 0.00 | 0.08 | 0.00 | 97 | ||
| 20260506020231 | 51 | 0.0 | 1.0 | 0.00 | 0.08 | 0.00 | 97 | ||
| 20260506015256 | 51 | 0.0 | 0.0 | 0.00 | 0.08 | 0.00 | 97 | ||
| 20260506014231 | 51 | 0.0 | 0.0 | 0.00 | 0.08 | 0.00 | 96 | ||
| 20260506013255 | 51 | 0.0 | 0.0 | 0.00 | 0.08 | 0.00 | 96 | ||
| 20260506012231 | 52 | 0.0 | 0.0 | 0.00 | 0.08 | 0.00 | 96 | ||
| 20260506011255 | 52 | 0.0 | 0.0 | 0.00 | 0.08 | 0.00 | 96 | ||
| 20260506010231 | 52 | 0.0 | 0.0 | 0.00 | 0.08 | 0.00 | 96 | ||
| 20260506005255 | 52 | 0.0 | 0.0 | 0.00 | 0.08 | 0.00 | 96 | ||
| 20260506004232 | 52 | 0.0 | 0.0 | 0.00 | 0.08 | 0.00 | 96 | ||
| 20260506003256 | 53 | 0.0 | 0.0 | 0.00 | 0.08 | 0.00 | 96 | ||
| 20260506002231 | 53 | 0.0 | 0.0 | 0.00 | 0.08 | 0.00 | 96 | ||
| 20260506001255 | 53 | 0.0 | 0.0 | 0.00 | 0.08 | 0.00 | 96 | ||
| 20260506000231 | 54 | 0.0 | 0.0 | 0.00 | 0.08 | 0.00 | 96 | ||
| 20260505235256 | 54 | 0.0 | 0.0 | 0.00 | 0.08 | 0.00 | 97 | ||
| 20260505234231 | 54 | 0.0 | 0.0 | 0.00 | 0.08 | 0.00 | 96 | ||
| 20260505233344 | 54 | 0.0 | 0.0 | 0.00 | 0.08 | 0.00 | 96 | ||
| 20260505232231 | 54 | 0.0 | 0.0 | 0.00 | 0.08 | 0.00 | 96 | ||
| 20260505231258 | 54 | 0.0 | 2.0 | 0.00 | 0.08 | 0.00 | 95 | ||
| 20260505230319 | 54 | 0.0 | 0.0 | 0.00 | 0.08 | 0.00 | 95 | ||
| 20260505225255 | 54 | 0.0 | 0.0 | 0.00 | 0.08 | 0.00 | 94 | ||
| 20260505224234 | 55 | 0.0 | 0.0 | 0.00 | 0.08 | 0.00 | 92 | ||
| 20260505223255 | 55 | 0.0 | 0.0 | 0.00 | 0.08 | 0.00 | 93 | ||
| 20260505222231 | 56 | 0.0 | 0.0 | 0.00 | 0.08 | 0.00 | 93 | ||
| 20260505221255 | 56 | 0.0 | 0.0 | 0.00 | 0.08 | 0.00 | 93 | ||
| 20260505220231 | 56 | 0.0 | 0.0 | 0.00 | 0.08 | 0.00 | 92 | ||
| 20260505215257 | 56 | 0.0 | 0.0 | 0.00 | 0.08 | 0.08 | 92 | ||
| 20260505214231 | 56 | 0.0 | 0.0 | 0.00 | 0.08 | 0.08 | 92 | ||
| 20260505213258 | 57 | 0.0 | 0.0 | 0.00 | 0.08 | 0.08 | 92 | ||
| 20260505212319 | 57 | 0.0 | 0.0 | 0.00 | 0.08 | 0.08 | 92 | ||
| 20260505211255 | 57 | 0.0 | 0.0 | 0.00 | 0.08 | 0.08 | 92 | ||
| 20260505210234 | 57 | 0.0 | 0.0 | 0.02 | 0.08 | 0.08 | 92 |